Time;durP1;ratioP1;P1;durP2;ratioP2;P2;SDS_P1;SDS_P2;PMS_P1;PMS_P2;Temp;Humidity;BMP_temperature;BMP_pressure;BME280_temperature;BME280_humidity;BME280_pressure;Samples;Min_cycle;Max_cycle;Signal;HPM_P1;HPM_P2
2022/09/14 00:00:48;;;;;;;;;;;17.40;99.90;;;;;;5034419;28;19944;-62
2022/09/14 00:03:14;;;;;;;;;;;17.40;99.90;;;;;;5034695;28;19912;-62
2022/09/14 00:05:40;;;;;;;;;;;17.50;99.90;;;;;;5034557;28;19909;-62
2022/09/14 00:08:06;;;;;;;;;;;17.50;99.90;;;;;;5016536;28;19963;-62
2022/09/14 00:10:31;;;;;;;;;;;17.50;99.90;;;;;;5034143;28;20349;-61
2022/09/14 00:12:59;;;;;;;;;;;17.50;99.90;;;;;;5016396;28;19951;-62
2022/09/14 00:15:25;;;;;;;;;;;17.50;99.90;;;;;;5034117;28;19952;-62
2022/09/14 00:17:51;;;;;;;;;;;17.60;99.90;;;;;;5034100;28;19940;-62
2022/09/14 00:20:16;;;;;;;;;;;17.50;99.90;;;;;;5033280;28;19963;-62
2022/09/14 00:22:42;;;;;;;;;;;17.50;99.90;;;;;;5016333;28;20357;-62
2022/09/14 00:25:08;;;;;;;;;;;17.50;99.90;;;;;;5034292;28;20261;-62
2022/09/14 00:27:34;;;;;;;;;;;17.50;99.90;;;;;;5033658;28;20366;-61
2022/09/14 00:29:59;;;;;;;;;;;17.60;99.90;;;;;;5033822;28;19912;-61
2022/09/14 00:32:25;;;;;;;;;;;17.60;99.90;;;;;;5033829;28;20415;-61
2022/09/14 00:34:50;;;;;;;;;;;17.60;99.90;;;;;;5033805;28;19912;-61
2022/09/14 00:37:16;;;;;;;;;;;17.70;99.90;;;;;;5033508;28;19920;-62
2022/09/14 00:39:42;;;;;;;;;;;17.60;99.90;;;;;;5033810;28;19909;-61
2022/09/14 00:42:13;;;;;;;;;;;17.60;99.90;;;;;;5033731;28;19905;-61
2022/09/14 00:44:39;;;;;;;;;;;17.50;99.90;;;;;;5033751;28;20102;-61
2022/09/14 00:47:04;;;;;;;;;;;17.50;99.90;;;;;;5034006;28;19992;-61
2022/09/14 00:49:36;;;;;;;;;;;17.50;99.90;;;;;;5015963;28;19912;-61
2022/09/14 00:52:08;;;;;;;;;;;17.40;99.90;;;;;;5033523;28;19913;-61
2022/09/14 00:54:39;;;;;;;;;;;17.50;99.90;;;;;;5033609;28;19905;-61
2022/09/14 00:57:05;;;;;;;;;;;17.50;99.90;;;;;;5033596;28;19905;-61
2022/09/14 00:59:34;;;;;;;;;;;17.50;99.90;;;;;;5033231;28;19912;-61
2022/09/14 01:02:00;;;;;;;;;;;17.50;99.90;;;;;;5033461;28;20342;-62
2022/09/14 01:04:25;;;;;;;;;;;17.40;99.90;;;;;;5033459;28;19995;-61
2022/09/14 01:07:15;;;;;;;;;;;17.40;99.90;;;;;;5033420;28;20436;-61
2022/09/14 01:09:42;;;;;;;;;;;17.40;99.90;;;;;;5033456;28;19993;-61
2022/09/14 01:12:26;;;;;;;;;;;17.40;99.90;;;;;;5033274;28;20373;-62
2022/09/14 01:14:52;;;;;;;;;;;17.40;99.90;;;;;;5033415;28;19917;-61
2022/09/14 01:17:27;;;;;;;;;;;17.40;99.90;;;;;;5015536;28;19906;-61
2022/09/14 01:20:11;;;;;;;;;;;17.40;99.90;;;;;;5015644;28;19955;-61
2022/09/14 01:22:49;;;;;;;;;;;17.30;99.90;;;;;;5015534;28;20357;-61
2022/09/14 01:25:33;;;;;;;;;;;17.30;99.90;;;;;;5033319;28;19909;-61
2022/09/14 01:28:00;;;;;;;;;;;17.10;99.90;;;;;;5033605;28;19912;-62
2022/09/14 01:30:27;;;;;;;;;;;17.10;99.90;;;;;;5033181;28;20374;-62
2022/09/14 01:33:10;;;;;;;;;;;17.00;99.90;;;;;;5036338;28;19905;-62
2022/09/14 01:35:52;;;;;;;;;;;16.90;99.90;;;;;;5037203;28;19909;-62
2022/09/14 01:38:23;;;;;;;;;;;16.90;99.90;;;;;;5037163;28;20371;-62
2022/09/14 01:40:49;;;;;;;;;;;16.80;99.90;;;;;;5019295;28;19955;-62
2022/09/14 01:43:24;;;;;;;;;;;16.80;99.90;;;;;;5019211;28;19905;-62
2022/09/14 01:45:51;;;;;;;;;;;16.90;99.90;;;;;;5036923;28;20247;-62
2022/09/14 01:48:20;;;;;;;;;;;16.90;99.90;;;;;;5019114;28;19915;-61
2022/09/14 01:50:49;;;;;;;;;;;16.80;99.90;;;;;;5036786;28;20290;-61
2022/09/14 01:53:18;;;;;;;;;;;16.80;99.90;;;;;;5036789;28;19959;-61
2022/09/14 01:55:47;;;;;;;;;;;16.80;99.90;;;;;;5036776;28;20358;-61
2022/09/14 01:58:25;;;;;;;;;;;16.70;99.90;;;;;;5036692;28;19909;-62
2022/09/14 02:00:52;;;;;;;;;;;16.70;99.90;;;;;;5036971;28;20006;-62
2022/09/14 02:03:25;;;;;;;;;;;16.60;99.90;;;;;;5036619;28;20008;-61
2022/09/14 02:05:59;;;;;;;;;;;16.70;99.90;;;;;;5036605;28;19905;-61
2022/09/14 02:08:26;;;;;;;;;;;16.70;99.90;;;;;;5036562;28;19951;-61
2022/09/14 02:10:51;;;;;;;;;;;16.70;99.90;;;;;;5018682;28;20372;-62
2022/09/14 02:13:18;;;;;;;;;;;;;;;;;;5035909;28;19909;-62
2022/09/14 02:15:44;;;;;;;;;;;;;;;;;;5036778;28;20068;-61
2022/09/14 02:18:11;;;;;;;;;;;16.60;99.90;;;;;;5035955;28;20015;-61
2022/09/14 02:20:40;;;;;;;;;;;16.50;99.90;;;;;;5036374;28;20000;-61
2022/09/14 02:23:06;;;;;;;;;;;16.50;99.90;;;;;;5036263;28;19998;-61
2022/09/14 02:25:32;;;;;;;;;;;;;;;;;;5036607;28;19945;-61
2022/09/14 02:27:58;;;;;;;;;;;16.60;99.90;;;;;;5036133;28;19904;-62
2022/09/14 02:30:24;;;;;;;;;;;16.60;99.90;;;;;;5035860;28;19952;-61
2022/09/14 02:33:08;;;;;;;;;;;16.60;99.90;;;;;;5018312;28;20285;-61
2022/09/14 02:35:36;;;;;;;;;;;16.60;99.90;;;;;;5036014;28;20373;-61
2022/09/14 02:38:04;;;;;;;;;;;16.70;99.90;;;;;;5036294;28;19992;-61
2022/09/14 02:40:34;;;;;;;;;;;16.70;99.90;;;;;;5035979;28;19909;-61
2022/09/14 02:43:12;;;;;;;;;;;16.80;99.90;;;;;;5034890;28;19905;-61
2022/09/14 02:45:42;;;;;;;;;;;16.80;99.90;;;;;;5035833;28;19905;-62
2022/09/14 02:48:07;;;;;;;;;;;16.80;99.90;;;;;;5035802;28;19999;-62
2022/09/14 02:50:36;;;;;;;;;;;16.80;99.90;;;;;;5035694;28;20004;-62
2022/09/14 02:53:04;;;;;;;;;;;16.90;99.90;;;;;;5035728;28;19967;-62
2022/09/14 02:55:33;;;;;;;;;;;16.90;99.90;;;;;;5035640;28;20373;-62
2022/09/14 02:58:07;;;;;;;;;;;16.90;99.90;;;;;;5035647;28;19922;-62
2022/09/14 03:00:37;;;;;;;;;;;16.80;99.90;;;;;;5017496;28;19995;-62
2022/09/14 03:03:06;;;;;;;;;;;16.70;99.90;;;;;;5035525;28;19908;-61
2022/09/14 03:05:32;;;;;;;;;;;16.70;99.90;;;;;;5017657;28;20416;-61
2022/09/14 03:07:58;;;;;;;;;;;16.50;99.90;;;;;;5035734;28;19908;-61
2022/09/14 03:10:24;;;;;;;;;;;16.50;99.90;;;;;;5035385;28;19909;-61
2022/09/14 03:12:50;;;;;;;;;;;16.50;99.90;;;;;;5035324;28;19979;-61
2022/09/14 03:15:15;;;;;;;;;;;16.50;99.90;;;;;;5013765;28;19924;-61
2022/09/14 03:17:48;;;;;;;;;;;16.40;99.90;;;;;;5014185;28;20358;-61
2022/09/14 03:20:14;;;;;;;;;;;16.40;99.90;;;;;;5014091;28;19915;-61
2022/09/14 03:22:40;;;;;;;;;;;16.40;99.90;;;;;;5015713;28;20408;-61
2022/09/14 03:25:06;;;;;;;;;;;16.40;99.90;;;;;;5015364;28;19905;-62
2022/09/14 03:27:31;;;;;;;;;;;16.30;99.90;;;;;;5015594;28;19928;-62
2022/09/14 03:29:57;;;;;;;;;;;16.20;99.90;;;;;;5015166;28;19960;-61
2022/09/14 03:32:23;;;;;;;;;;;16.20;99.90;;;;;;5015023;28;20280;-61
2022/09/14 03:34:48;;;;;;;;;;;16.10;99.90;;;;;;5015167;28;20397;-61
2022/09/14 03:37:14;;;;;;;;;;;16.10;99.90;;;;;;5014827;28;20011;-61
2022/09/14 03:39:39;;;;;;;;;;;16.10;99.90;;;;;;5015088;28;19916;-61
2022/09/14 03:42:05;;;;;;;;;;;16.00;99.90;;;;;;5015067;28;20496;-62
2022/09/14 03:44:31;;;;;;;;;;;16.00;99.90;;;;;;5046694;28;19906;-61
2022/09/14 03:46:57;;;;;;;;;;;16.00;99.90;;;;;;5014911;28;19917;-61
2022/09/14 03:49:23;;;;;;;;;;;16.00;99.90;;;;;;5013612;28;19905;-61
2022/09/14 03:51:48;;;;;;;;;;;16.00;99.90;;;;;;5014916;28;20305;-61
2022/09/14 03:54:14;;;;;;;;;;;16.10;99.90;;;;;;5014612;28;19909;-61
2022/09/14 03:56:40;;;;;;;;;;;16.00;99.90;;;;;;5014764;28;19905;-61
2022/09/14 03:59:07;;;;;;;;;;;16.10;99.90;;;;;;5014722;28;19909;-61
2022/09/14 04:01:33;;;;;;;;;;;16.00;99.90;;;;;;5015020;28;19955;-61
2022/09/14 04:16:39;;;;;;;;;;;15.90;99.90;;;;;;5152287;27;19911;-63
2022/09/14 04:19:05;;;;;;;;;;;;;;;;;;5152557;27;19983;-63
2022/09/14 04:21:31;;;;;;;;;;;16.30;99.90;;;;;;5152799;27;19907;-63
2022/09/14 04:23:57;;;;;;;;;;;16.30;99.90;;;;;;5152358;27;19962;-63
2022/09/14 04:26:25;;;;;;;;;;;16.30;99.90;;;;;;5152371;27;19942;-63
2022/09/14 04:28:50;;;;;;;;;;;16.30;99.90;;;;;;5151326;27;19917;-63
2022/09/14 04:31:16;;;;;;;;;;;16.20;99.90;;;;;;5152317;27;20006;-63
2022/09/14 04:33:42;;;;;;;;;;;16.20;99.90;;;;;;5151565;27;19907;-63
2022/09/14 04:36:09;;;;;;;;;;;16.10;99.90;;;;;;5151845;27;20378;-64
2022/09/14 04:38:36;;;;;;;;;;;16.10;99.90;;;;;;5152118;27;19911;-64
2022/09/14 04:41:14;;;;;;;;;;;16.10;99.90;;;;;;5152151;27;19911;-64
2022/09/14 04:43:41;;;;;;;;;;;16.10;99.90;;;;;;5152031;27;19914;-64
2022/09/14 04:46:09;;;;;;;;;;;16.10;99.90;;;;;;5151931;27;19915;-64
2022/09/14 04:48:34;;;;;;;;;;;16.00;99.90;;;;;;5150631;27;20258;-64
2022/09/14 04:51:04;;;;;;;;;;;16.00;99.90;;;;;;5151913;27;19907;-64
2022/09/14 04:53:31;;;;;;;;;;;16.10;99.90;;;;;;5151829;27;19994;-64
2022/09/14 04:55:58;;;;;;;;;;;16.10;99.90;;;;;;5151704;27;19912;-64
2022/09/14 04:58:24;;;;;;;;;;;16.10;99.90;;;;;;5151735;27;19918;-64
2022/09/14 05:00:49;;;;;;;;;;;16.10;99.90;;;;;;5152054;27;20265;-64
2022/09/14 05:03:15;;;;;;;;;;;16.10;99.90;;;;;;5150240;27;20380;-63
2022/09/14 05:05:41;;;;;;;;;;;16.20;99.90;;;;;;5151584;27;19915;-63
2022/09/14 05:08:06;;;;;;;;;;;16.20;99.90;;;;;;5151633;27;20013;-63
2022/09/14 05:10:32;;;;;;;;;;;16.20;99.90;;;;;;5151503;27;20350;-64
2022/09/14 05:12:58;;;;;;;;;;;16.20;99.90;;;;;;5150045;27;20358;-63
2022/09/14 05:15:23;;;;;;;;;;;16.30;99.90;;;;;;5150126;27;19919;-63
2022/09/14 05:17:49;;;;;;;;;;;16.30;99.90;;;;;;5136771;27;19918;-64
2022/09/14 05:20:15;;;;;;;;;;;16.30;99.90;;;;;;5137501;27;19961;-63
2022/09/14 05:22:41;;;;;;;;;;;16.40;99.90;;;;;;5136054;27;20261;-63
2022/09/14 05:25:07;;;;;;;;;;;16.40;99.90;;;;;;5137345;27;19915;-63
2022/09/14 05:27:32;;;;;;;;;;;16.40;99.90;;;;;;5137251;27;19953;-63
2022/09/14 05:29:58;;;;;;;;;;;16.40;99.90;;;;;;5137215;27;20330;-63
2022/09/14 05:32:24;;;;;;;;;;;16.40;99.90;;;;;;5137133;27;19998;-63
2022/09/14 05:34:49;;;;;;;;;;;16.40;99.90;;;;;;5136798;27;19907;-63
2022/09/14 05:37:15;;;;;;;;;;;16.40;99.90;;;;;;5137400;27;19908;-63
2022/09/14 05:39:40;;;;;;;;;;;16.50;99.90;;;;;;5137097;27;20006;-64
2022/09/14 05:42:06;;;;;;;;;;;16.50;99.90;;;;;;5135626;27;20341;-63
2022/09/14 05:44:32;;;;;;;;;;;16.60;99.90;;;;;;5137053;27;19919;-63
2022/09/14 05:46:57;;;;;;;;;;;16.70;99.90;;;;;;5135635;27;19911;-63
2022/09/14 05:49:24;;;;;;;;;;;16.70;99.90;;;;;;5136891;27;20286;-63
2022/09/14 05:51:49;;;;;;;;;;;16.80;99.90;;;;;;5136525;27;19914;-63
2022/09/14 05:54:15;;;;;;;;;;;16.80;99.90;;;;;;5135361;27;19907;-63
2022/09/14 05:56:40;;;;;;;;;;;16.90;99.90;;;;;;5135429;27;19907;-63
2022/09/14 05:59:06;;;;;;;;;;;16.90;99.90;;;;;;5136739;27;19914;-64
2022/09/14 06:01:32;;;;;;;;;;;17.00;99.90;;;;;;5136678;27;19907;-63
2022/09/14 06:04:02;;;;;;;;;;;17.00;99.90;;;;;;5136616;27;19915;-64
2022/09/14 06:06:28;;;;;;;;;;;17.10;99.90;;;;;;5136455;27;19911;-63
2022/09/14 06:08:55;;;;;;;;;;;17.20;99.90;;;;;;5136576;27;19914;-63
2022/09/14 06:11:22;;;;;;;;;;;17.20;99.90;;;;;;5136506;27;20365;-63
2022/09/14 06:13:48;;;;;;;;;;;17.30;99.90;;;;;;5136500;27;19912;-63
2022/09/14 06:16:15;;;;;;;;;;;17.40;99.90;;;;;;5134583;27;20434;-63
2022/09/14 06:18:41;;;;;;;;;;;17.40;99.90;;;;;;5136342;27;19908;-63
2022/09/14 06:21:07;;;;;;;;;;;17.50;99.90;;;;;;5136383;27;19943;-64
2022/09/14 06:23:33;;;;;;;;;;;17.60;99.90;;;;;;5135483;27;19911;-63
2022/09/14 06:26:00;;;;;;;;;;;17.70;99.90;;;;;;5134373;27;19923;-64
2022/09/14 06:28:26;;;;;;;;;;;17.70;99.90;;;;;;5134878;27;20369;-63
2022/09/14 06:30:52;;;;;;;;;;;17.90;99.90;;;;;;5136472;27;19926;-64
2022/09/14 06:33:18;;;;;;;;;;;17.90;99.90;;;;;;5135409;27;19916;-63
2022/09/14 06:35:52;;;;;;;;;;;18.00;99.90;;;;;;5135936;27;19907;-63
2022/09/14 06:38:18;;;;;;;;;;;18.10;99.90;;;;;;5135767;27;19986;-63
2022/09/14 06:40:51;;;;;;;;;;;18.10;99.90;;;;;;5133622;27;19915;-64
2022/09/14 06:43:16;;;;;;;;;;;18.10;99.90;;;;;;5134441;27;19916;-63
2022/09/14 06:45:42;;;;;;;;;;;18.30;99.90;;;;;;5135062;27;20371;-63
2022/09/14 06:48:08;;;;;;;;;;;18.40;99.90;;;;;;5136003;27;19973;-63
2022/09/14 06:50:33;;;;;;;;;;;18.50;99.90;;;;;;5135772;27;19914;-64
2022/09/14 06:52:59;;;;;;;;;;;18.60;99.90;;;;;;5135889;27;20269;-63
2022/09/14 06:55:25;;;;;;;;;;;18.60;99.90;;;;;;5135525;27;19958;-63
2022/09/14 06:57:51;;;;;;;;;;;18.80;99.90;;;;;;5135565;27;19918;-64
2022/09/14 07:00:18;;;;;;;;;;;18.80;99.90;;;;;;5135395;27;19915;-63
2022/09/14 07:02:43;;;;;;;;;;;18.90;99.90;;;;;;5135405;27;19976;-63
2022/09/14 07:05:09;;;;;;;;;;;19.10;99.90;;;;;;5135312;27;20301;-63
2022/09/14 07:07:35;;;;;;;;;;;19.20;99.90;;;;;;5135625;27;20243;-63
2022/09/14 07:10:00;;;;;;;;;;;19.20;99.90;;;;;;5135061;27;19914;-68
2022/09/14 07:12:26;;;;;;;;;;;19.30;99.90;;;;;;5135112;27;19964;-64
2022/09/14 07:14:52;;;;;;;;;;;19.40;99.90;;;;;;5135034;27;19919;-64
2022/09/14 07:17:18;;;;;;;;;;;19.60;99.90;;;;;;5134031;27;19962;-65
2022/09/14 07:19:44;;;;;;;;;;;19.60;99.90;;;;;;5125913;27;19915;-66
2022/09/14 07:22:10;;;;;;;;;;;19.70;99.90;;;;;;5134611;27;19908;-65
2022/09/14 07:24:35;;;;;;;;;;;19.80;99.90;;;;;;5134890;27;19915;-65
2022/09/14 07:27:01;;;;;;;;;;;19.90;99.90;;;;;;5134630;27;19911;-66
2022/09/14 07:29:27;;;;;;;;;;;20.00;99.90;;;;;;5134054;27;19915;-65
2022/09/14 07:31:53;;;;;;;;;;;20.10;99.90;;;;;;5134798;27;19966;-65
2022/09/14 07:34:22;;;;;;;;;;;20.30;99.90;;;;;;5134497;27;19929;-65
2022/09/14 07:36:48;;;;;;;;;;;20.40;99.90;;;;;;5134567;27;20457;-65
2022/09/14 07:39:15;;;;;;;;;;;20.50;99.90;;;;;;5134391;27;19994;-66
2022/09/14 07:41:42;;;;;;;;;;;20.70;99.90;;;;;;5134522;27;20240;-64
2022/09/14 07:44:08;;;;;;;;;;;20.90;99.90;;;;;;5134510;27;20268;-65
2022/09/14 07:46:42;;;;;;;;;;;21.10;99.90;;;;;;5134502;27;19961;-65
2022/09/14 07:49:08;;;;;;;;;;;21.20;99.90;;;;;;5134628;27;20408;-66
2022/09/14 07:51:35;;;;;;;;;;;21.30;99.90;;;;;;5134494;27;19908;-66
2022/09/14 07:54:01;;;;;;;;;;;21.40;99.90;;;;;;5134503;27;20428;-65
2022/09/14 07:56:27;;;;;;;;;;;21.60;99.90;;;;;;5134425;27;19908;-65
2022/09/14 07:58:54;;;;;;;;;;;21.70;99.90;;;;;;5134481;27;19908;-66
2022/09/14 08:01:21;;;;;;;;;;;21.80;99.90;;;;;;5134328;27;20296;-68
2022/09/14 08:03:47;;;;;;;;;;;22.00;99.90;;;;;;5133144;28;19943;-68
2022/09/14 08:06:14;;;;;;;;;;;22.20;99.90;;;;;;5132915;28;20264;-69
2022/09/14 08:08:41;;;;;;;;;;;22.30;99.90;;;;;;5132226;28;19907;-65
2022/09/14 08:11:10;;;;;;;;;;;22.50;99.90;;;;;;5134236;27;19957;-64
2022/09/14 08:13:36;;;;;;;;;;;22.40;99.90;;;;;;5132782;28;19916;-64
2022/09/14 08:16:02;;;;;;;;;;;22.50;99.90;;;;;;5134210;27;20314;-65
2022/09/14 08:18:28;;;;;;;;;;;22.50;99.90;;;;;;5134259;27;19968;-65
2022/09/14 08:20:54;;;;;;;;;;;22.70;99.90;;;;;;5132756;28;19916;-65
2022/09/14 08:23:20;;;;;;;;;;;22.90;99.90;;;;;;5133735;27;20274;-63
2022/09/14 08:25:46;;;;;;;;;;;23.00;99.90;;;;;;5133875;27;19922;-64
2022/09/14 08:28:11;;;;;;;;;;;23.20;99.90;;;;;;5133735;28;20375;-66
2022/09/14 08:30:37;;;;;;;;;;;23.40;99.90;;;;;;5132443;28;19994;-63
2022/09/14 08:33:03;;;;;;;;;;;23.50;99.90;;;;;;5134374;27;19911;-63
2022/09/14 08:35:28;;;;;;;;;;;23.70;99.90;;;;;;5133873;27;20402;-63
2022/09/14 08:37:54;;;;;;;;;;;23.90;99.90;;;;;;5133146;27;20014;-63
2022/09/14 08:40:20;;;;;;;;;;;24.00;99.90;;;;;;5132938;28;19911;-63
2022/09/14 08:42:47;;;;;;;;;;;24.20;99.90;;;;;;5132300;27;19919;-62
2022/09/14 08:45:15;;;;;;;;;;;24.40;99.90;;;;;;5132342;27;19919;-63
2022/09/14 08:47:41;;;;;;;;;;;24.50;99.90;;;;;;5132576;27;19911;-62
2022/09/14 08:50:11;;;;;;;;;;;24.60;99.90;;;;;;5132428;27;19908;-62
2022/09/14 08:52:36;;;;;;;;;;;24.80;99.90;;;;;;5132684;27;20366;-63
2022/09/14 08:55:22;;;;;;;;;;;25.00;99.90;;;;;;5136175;27;19960;-63
2022/09/14 08:57:50;;;;;;;;;;;25.20;99.90;;;;;;5134420;27;19918;-63
2022/09/14 09:00:19;;;;;;;;;;;25.30;99.90;;;;;;5134177;27;19908;-62
2022/09/14 09:02:54;;;;;;;;;;;25.40;99.90;;;;;;5134439;27;19966;-63
2022/09/14 09:05:43;;;;;;;;;;;25.50;99.90;;;;;;5136044;27;20324;-64
2022/09/14 09:08:29;;;;;;;;;;;25.50;99.90;;;;;;5126552;27;19934;-62
2022/09/14 09:10:57;;;;;;;;;;;25.70;99.90;;;;;;5134722;27;20472;-62
2022/09/14 09:13:25;;;;;;;;;;;25.70;99.90;;;;;;5137569;27;19915;-62
2022/09/14 09:15:52;;;;;;;;;;;25.70;99.90;;;;;;5136680;27;19962;-64
2022/09/14 09:18:25;;;;;;;;;;;26.00;99.90;;;;;;5136612;27;19964;-65
2022/09/14 09:20:55;;;;;;;;;;;26.10;99.90;;;;;;5119308;27;19908;-71
2022/09/14 09:23:22;;;;;;;;;;;26.40;99.90;;;;;;5116673;28;19952;-69
2022/09/14 09:26:05;;;;;;;;;;;26.60;99.90;;;;;;5115176;28;20416;-68
2022/09/14 09:28:32;;;;;;;;;;;26.90;99.90;;;;;;5116561;27;19908;-65
2022/09/14 09:31:00;;;;;;;;;;;27.00;99.90;;;;;;5116301;28;20382;-71
2022/09/14 09:33:26;;;;;;;;;;;27.10;99.90;;;;;;5116473;28;19908;-68
2022/09/14 09:35:52;;;;;;;;;;;27.30;99.90;;;;;;5116438;28;20275;-69
2022/09/14 09:38:23;;;;;;;;;;;27.30;99.90;;;;;;5123592;27;19922;-68
2022/09/14 09:41:00;;;;;;;;;;;27.50;99.90;;;;;;5136347;27;19915;-62
2022/09/14 09:43:26;;;;;;;;;;;27.70;99.90;;;;;;5136725;27;19908;-66
2022/09/14 09:45:59;;;;;;;;;;;27.90;99.90;;;;;;5134804;27;19922;-65
2022/09/14 09:48:45;;;;;;;;;;;28.00;99.90;;;;;;5136553;27;19908;-65
2022/09/14 09:51:12;;;;;;;;;;;28.00;99.90;;;;;;5134555;27;19915;-65
2022/09/14 09:53:46;;;;;;;;;;;28.20;99.90;;;;;;5135367;27;20269;-66
2022/09/14 09:56:29;;;;;;;;;;;28.20;99.90;;;;;;5136140;27;19996;-67
2022/09/14 09:58:54;;;;;;;;;;;28.40;99.90;;;;;;5136752;27;20244;-67
2022/09/14 10:01:20;;;;;;;;;;;28.40;99.90;;;;;;5136400;27;19907;-69
2022/09/14 10:04:01;;;;;;;;;;;28.50;99.90;;;;;;5134885;27;19913;-68
2022/09/14 10:06:27;;;;;;;;;;;28.60;99.90;;;;;;5136283;27;19915;-68
2022/09/14 10:08:53;;;;;;;;;;;28.80;99.90;;;;;;5134726;27;20373;-64
2022/09/14 10:11:25;;;;;;;;;;;28.90;99.90;;;;;;5136154;27;19915;-66
2022/09/14 10:13:51;;;;;;;4.38;2.00;;;29.10;99.90;;;;;;5136029;27;19908;-63
2022/09/14 10:16:19;;;;;;;10.60;2.95;;;29.50;98.90;;;;;;5135037;27;20054;-65
2022/09/14 10:18:50;;;;;;;5.05;1.58;;;29.90;99.90;;;;;;5135766;27;20031;-63
2022/09/14 10:21:21;;;;;;;5.50;1.80;;;30.60;97.30;;;;;;5135738;27;20031;-64
2022/09/14 10:24:00;;;;;;;;;;;31.00;98.40;;;;;;5136090;27;20412;-66
2022/09/14 10:26:30;;;;;;;2.08;1.80;;;31.30;96.10;;;;;;5135175;27;20349;-64
2022/09/14 10:29:30;;;;;;;2.35;1.15;;;31.10;94.40;;;;;;5135588;27;20023;-63
2022/09/14 10:31:59;;;;;;;;;;;31.00;95.70;;;;;;5134460;27;20476;-63
2022/09/14 10:34:25;;;;;;;;;;;31.40;95.20;;;;;;5135136;27;19904;-64
2022/09/14 10:37:14;;;;;;;;;;;31.30;95.60;;;;;;5134646;27;19914;-65
2022/09/14 10:39:56;;;;;;;;;;;32.80;90.80;;;;;;5123212;27;19908;-65
2022/09/14 10:42:43;;;;;;;;;;;33.60;91.30;;;;;;5134361;27;19952;-67
2022/09/14 10:45:18;;;;;;;;;;;34.00;91.90;;;;;;5129780;27;19918;-64
2022/09/14 10:47:51;;;;;;;;;;;34.60;85.40;;;;;;5132613;27;20300;-64
2022/09/14 10:50:19;;;;;;;;;;;35.60;78.70;;;;;;5134093;27;19948;-67
2022/09/14 10:52:52;;;;;;;;;;;34.80;81.60;;;;;;5135016;27;20289;-68
2022/09/14 10:55:41;;;;;;;;;;;34.30;79.40;;;;;;5135143;27;19915;-68
2022/09/14 10:58:26;;;;;;;;;;;33.70;79.80;;;;;;5133992;27;19934;-64
2022/09/14 11:00:58;;;;;;;;;;;33.00;80.70;;;;;;5132663;27;19959;-64
2022/09/14 11:03:27;;;;;;;;;;;31.90;82.00;;;;;;5135188;27;19903;-65
2022/09/14 11:05:52;;;;;;;;;;;34.50;80.60;;;;;;5134927;27;19934;-63
2022/09/14 11:08:18;;;;;;;;;;;34.70;81.00;;;;;;5135332;27;20354;-65
2022/09/14 11:11:03;;;;;;;;;;;36.40;76.80;;;;;;5121651;27;19907;-66
2022/09/14 11:13:35;;;;;;;;;;;37.20;77.40;;;;;;5113787;27;19946;-64
2022/09/14 11:16:19;;;;;;;;;;;37.60;71.20;;;;;;5117416;27;20025;-66
2022/09/14 11:18:50;;;;;;;;;;;36.30;65.60;;;;;;5134411;27;19908;-64
2022/09/14 11:21:24;;;;;;;;;;;36.30;70.30;;;;;;5134393;27;20397;-64
2022/09/14 11:23:55;;;;;;;;;;;36.80;69.70;;;;;;5132580;27;20278;-64
2022/09/14 11:26:24;;;;;;;;;;;36.40;71.60;;;;;;5132477;27;20397;-65
2022/09/14 11:28:50;;;;;;;;;;;;;;;;;;5134279;27;20363;-65
2022/09/14 11:31:22;;;;;;;;;;;33.30;70.00;;;;;;5133335;27;20006;-65
2022/09/14 11:33:54;;;;;;;;;;;32.70;74.20;;;;;;5123250;27;19907;-64
2022/09/14 11:36:33;;;;;;;;;;;32.20;75.40;;;;;;5133760;27;19933;-63
2022/09/14 11:39:04;;;;;;;;;;;31.00;76.20;;;;;;5134336;27;19908;-62
2022/09/14 11:41:30;;;;;;;;;;;;;;;;;;5133975;27;19910;-63
2022/09/14 11:43:56;;;;;;;;;;;30.10;80.00;;;;;;5132709;27;19959;-63
2022/09/14 11:46:25;;;;;;;;;;;30.00;80.80;;;;;;5134100;27;19915;-63
2022/09/14 11:48:51;;;;;;;;;;;;;;;;;;5134357;27;19926;-65
2022/09/14 11:51:25;;;;;;;;;;;29.80;82.40;;;;;;5134423;27;19914;-63
2022/09/14 11:53:51;;;;;;;;;;;29.90;82.60;;;;;;5134294;27;19907;-64
2022/09/14 11:56:25;;;;;;;;;;;32.90;81.40;;;;;;5134189;27;19904;-63
2022/09/14 11:58:55;;;;;;;;;;;34.20;77.70;;;;;;5132603;27;19904;-64
2022/09/14 12:01:34;;;;;;;;;;;37.00;68.50;;;;;;5132355;27;19907;-64
2022/09/14 12:04:04;;;;;;;;;;;37.00;69.90;;;;;;5133845;27;19910;-64
2022/09/14 12:06:30;;;;;;;;;;;38.00;67.80;;;;;;5134087;27;20494;-65
2022/09/14 12:09:23;;;;;;;;;;;38.30;66.30;;;;;;5128914;28;19935;-66
2022/09/14 12:11:49;;;;;;;;;;;40.10;64.80;;;;;;5113197;28;19904;-64
2022/09/14 12:14:21;;;;;;;;;;;40.50;63.50;;;;;;5111995;28;19964;-64
2022/09/14 12:17:13;;;;;;;;;;;39.70;61.60;;;;;;5113637;28;19903;-66
2022/09/14 12:19:38;;;;;;;;;;;40.00;60.60;;;;;;5113808;28;19912;-65
2022/09/14 12:22:19;;;;;;;;;;;39.70;62.20;;;;;;5133388;28;19904;-63
2022/09/14 12:24:56;;;;;;;;;;;39.30;62.00;;;;;;5132285;28;19911;-65
2022/09/14 12:27:21;;;;;;;;;;;40.00;62.20;;;;;;5136487;27;19908;-64
2022/09/14 12:29:47;;;;;;;;;;;40.60;71.90;;;;;;5137699;27;19910;-64
2022/09/14 12:32:31;;;;;;;;;;;40.00;59.90;;;;;;5137750;27;19910;-65
2022/09/14 12:35:15;;;;;;;;;;;40.00;60.20;;;;;;5137849;27;19903;-64
2022/09/14 12:37:41;;;;;;;;;;;38.30;63.40;;;;;;5137685;27;19903;-65
2022/09/14 12:40:11;;;;;;;;;;;38.70;61.80;;;;;;5137771;27;20321;-64
2022/09/14 12:42:36;;;;;;;;;;;39.50;61.00;;;;;;5137690;27;19903;-65
2022/09/14 12:45:21;;;;;;;;;;;39.30;60.90;;;;;;5137229;27;19912;-64
2022/09/14 12:47:50;;;;;;;;;;;41.50;85.00;;;;;;5137362;27;19951;-65
2022/09/14 12:50:17;;;;;;;;;;;41.70;57.50;;;;;;5135895;27;19911;-65
2022/09/14 12:52:50;;;;;;;;;;;41.50;58.10;;;;;;5137199;27;19904;-65
2022/09/14 12:55:16;;;;;;;;;;;;;;;;;;5137497;27;19911;-66
2022/09/14 12:58:05;;;;;;;;;;;42.60;57.20;;;;;;5137108;27;19910;-65
2022/09/14 13:00:44;;;;;;;;;;;43.30;55.30;;;;;;5098180;27;19907;-65
2022/09/14 13:03:10;;;;;;;;;;;43.50;83.20;;;;;;5136778;27;20286;-66
2022/09/14 13:05:36;;;;;;;;;;;;;;;;;;5135869;27;20006;-67
2022/09/14 13:08:02;;;;;;;;;;;;;;;;;;5137505;27;19911;-67
2022/09/14 13:10:29;;;;;;;;;;;;;;;;;;5137014;27;19914;-67
2022/09/14 13:12:55;;;;;;;;;;;;;;;;;;5137018;27;19904;-68
2022/09/14 13:15:21;;;;;;;;;;;;;;;;;;5136733;27;20036;-66
2022/09/14 13:17:47;;;;;;;;;;;;;;;;;;5137299;27;19971;-65
2022/09/14 13:20:14;;;;;;;;;;;;;;;;;;5136323;27;19968;-66
2022/09/14 13:22:41;;;;;;;;;;;38.00;65.10;;;;;;5135229;27;19985;-67
2022/09/14 13:25:07;;;;;;;;;;;;;;;;;;5136675;27;19919;-66
2022/09/14 13:27:37;;;;;;;;;;;40.50;61.90;;;;;;5135368;27;19907;-65
2022/09/14 13:30:16;;;;;;;;;;;40.40;60.80;;;;;;5136656;27;19907;-66
2022/09/14 13:32:44;;;;;;;;;;;40.60;60.90;;;;;;5136582;27;19903;-66
2022/09/14 13:35:18;;;;;;;;;;;40.70;61.60;;;;;;5136656;27;19903;-66
2022/09/14 13:37:44;;;;;;;;;;;40.90;59.60;;;;;;5136174;27;19951;-66
2022/09/14 13:40:10;;;;;;;;;;;39.50;60.40;;;;;;5136885;27;19939;-67
2022/09/14 13:42:36;;;;;;;;;;;;;;;;;;5136428;27;19964;-64
2022/09/14 13:45:03;;;;;;;;;;;37.70;62.50;;;;;;5134895;27;20380;-65
2022/09/14 13:47:29;;;;;;;;;;;36.40;63.20;;;;;;5136263;27;19913;-64
2022/09/14 13:49:56;;;;;;;;;;;;;;;;;;5136450;27;19903;-64
2022/09/14 13:52:21;;;;;;;;;;;34.20;67.20;;;;;;5136297;27;19904;-64
2022/09/14 13:54:48;;;;;;;;;;;33.50;67.70;;;;;;5136171;27;19903;-63
2022/09/14 13:57:15;;;;;;;;;;;32.90;69.70;;;;;;5134797;27;19903;-63
2022/09/14 14:00:00;;;;;;;;;;;32.50;71.10;;;;;;5134872;27;20304;-64
2022/09/14 14:02:26;;;;;;;;;;;32.50;71.90;;;;;;5135958;27;19986;-63
2022/09/14 14:04:52;;;;;;;;;;;32.30;74.40;;;;;;5136190;27;19911;-66
2022/09/14 14:07:22;;;;;;;;;;;32.30;73.10;;;;;;5134435;27;19938;-63
2022/09/14 14:09:53;;;;;;;;;;;32.30;73.80;;;;;;5135791;27;19985;-64
2022/09/14 14:12:26;;;;;;;;;;;32.20;74.90;;;;;;5135966;27;19907;-64
2022/09/14 14:14:53;;;;;;;;;;;32.30;75.80;;;;;;5135704;27;19922;-64
2022/09/14 14:17:23;;;;;;;;;;;33.10;75.20;;;;;;5135836;27;19911;-64
2022/09/14 14:19:51;;;;;;;;;;;33.10;74.20;;;;;;5135916;27;19907;-64
2022/09/14 14:22:37;;;;;;;;;;;33.00;75.10;;;;;;5135500;27;20001;-65
2022/09/14 14:25:18;;;;;;;;;;;32.80;76.50;;;;;;5135310;27;19935;-64
2022/09/14 14:27:45;;;;;;;;;;;32.40;76.00;;;;;;5135826;27;19904;-63
2022/09/14 14:30:18;;;;;;;;;;;32.00;77.70;;;;;;5135909;27;19911;-64
2022/09/14 14:32:51;;;;;;;;;;;31.70;78.60;;;;;;5135963;27;19911;-64
2022/09/14 14:35:18;;;;;;;;;;;31.50;80.20;;;;;;5134611;27;20274;-64
2022/09/14 14:37:44;;;;;;;;;;;31.30;80.30;;;;;;5135648;27;19903;-62
2022/09/14 14:40:13;;;;;;;;;;;30.90;81.90;;;;;;5135819;27;19926;-65
2022/09/14 14:42:40;;;;;;;;;;;30.70;81.10;;;;;;5136115;27;19911;-63
2022/09/14 14:45:06;;;;;;;;;;;30.30;81.70;;;;;;5133515;27;20052;-63